• Join FlightAware (Why Join?)
  • Login
  • US Flag 
03:47PM EDT


 

Airport Tracker/Info


-or-


 

Live Flight TrackerFlight Track Log ✈ ACA831 ✈ 27-Apr-2013 ✈ CYUL - CYYZ

Flight Track Log - Related Links

Times and Time Zones

All times are in EDT time to prevent confusion due to time zone crossing. See the ACA831 flight status page for this flight to view local times or setup timezone preferences in your user account.

Time Position Orientation Groundspeed Altitude Reporting Facility
EDT Latitude Longitude Course Direction KTS MPH feet Rate Location/Type
04:22PM 45.4640 -73.7280 205° Southwest 159 183 300  Level FlightAware
04:22PM 45.4500 -73.7460 222° Southwest 177 204 1,600 2,940 Climbing FlightAware
04:22PM 45.4290 -73.7710 220° Southwest 219 252 3,000 3,120 Climbing FlightAware
04:23PM 45.4110 -73.7960 224° Southwest 233 268 4,500 3,720 Climbing FlightAware
04:23PM 45.4040 -73.8180 246° West 248 285 5,500 3,960 Climbing FlightAware
04:23PM 45.4020 -73.8410 263° West 258 297 6,500 4,080 Climbing FlightAware
04:24PM 45.4030 -73.8930 272° West 266 306 8,600 3,840 Climbing FlightAware
04:25PM 45.4050 -73.9680 272° West 303 349 11,000 2,820 Climbing FlightAware
04:25PM 45.4090 -74.0680 273° West 369 425 12,600 2,700 Climbing FlightAware
04:26PM 45.4120 -74.1660 273° West 396 456 14,900 3,660 Climbing FlightAware
04:27PM 45.4160 -74.2750 273° West 407 468 17,500 3,600 Climbing FlightAware
04:27PM 45.4190 -74.3970 272° West 426 490 20,000 3,300 Climbing FlightAware
04:28PM 45.4060 -74.5090 261° West 440 506 22,200 3,060 Climbing FlightAware
04:29PM 45.3830 -74.6430 256° West 455 524 24,400 2,880 Climbing FlightAware
04:29PM 45.3630 -74.7620 257° West 463 533 26,300 3,120 Climbing FlightAware
04:30PM 45.3430 -74.8770 256° West 454 522 28,600 3,060 Climbing FlightAware
04:31PM 45.3210 -75.0110 257° West 453 521 30,700 2,640 Climbing FlightAware
04:32PM 45.3010 -75.1240 256° West 451 519 32,400 2,220 Climbing FlightAware
04:32PM 45.2800 -75.2510 257° West 449 517 33,900 1,080 Climbing FlightAware
04:33PM 45.2600 -75.3670 256° West 444 511 34,000 60 Climbing FlightAware
04:34PM 45.2400 -75.4770 256° West 440 506 34,000  Level FlightAware
04:34PM 45.2170 -75.6060 256° West 438 504 34,000  Level FlightAware
04:35PM 45.1980 -75.7160 256° West 439 505 34,000  Level FlightAware
04:36PM 45.1760 -75.8380 256° West 439 505 34,000  Level FlightAware
04:36PM 45.1560 -75.9500 256° West 439 505 34,000  Level FlightAware
04:37PM 45.1360 -76.0600 256° West 441 507 34,000  Level FlightAware
04:38PM 45.1200 -76.1450 255° West 441 507 34,000  Level FlightAware
04:38PM 45.0860 -76.2730 249° West 453 521 34,000  Level FlightAware
04:39PM 45.0320 -76.4080 241° Southwest 450 518 34,000  Level FlightAware
04:40PM 44.9910 -76.5120 241° Southwest 450 518 34,000  Level FlightAware
04:41PM 44.9510 -76.6130 241° Southwest 449 517 34,000  Level FlightAware
04:41PM 44.9040 -76.7300 240° Southwest 449 517 34,000  Level FlightAware
04:42PM 44.8630 -76.8320 240° Southwest 453 521 34,000  Level FlightAware
04:43PM 44.8160 -76.9480 240° Southwest 455 524 34,000  Level FlightAware
04:43PM 44.7750 -77.0500 241° Southwest 455 524 34,000  Level FlightAware
04:44PM 44.7340 -77.1530 241° Southwest 455 524 34,000  Level FlightAware
04:45PM 44.6940 -77.2510 240° Southwest 455 524 34,000  Level FlightAware
04:46PM 44.6500 -77.3600 240° Southwest 456 525 34,000  Level FlightAware
04:46PM 44.6080 -77.4630 240° Southwest 455 524 34,000 -960 Level FlightAware
04:47PM 44.5630 -77.5720 240° Southwest 442 509 32,700 -2,760 Descending FlightAware
04:48PM 44.5200 -77.6760 240° Southwest 454 522 30,100 -3,720 Descending FlightAware
04:48PM 44.4720 -77.7920 240° Southwest 457 526 27,500 -3,060 Descending FlightAware
04:49PM 44.4340 -77.8840 240° Southwest 447 514 25,800 -2,760 Descending FlightAware
04:50PM 44.3840 -78.0030 240° Southwest 435 501 23,600 -2,760 Descending FlightAware
04:50PM 44.3460 -78.0940 240° Southwest 427 491 21,900 -2,640 Descending FlightAware
04:51PM 44.3040 -78.1910 239° Southwest 416 479 20,100 -2,700 Descending FlightAware
04:52PM 44.2600 -78.2950 239° Southwest 406 467 18,100 -2,640 Descending FlightAware
04:53PM 44.2220 -78.3830 239° Southwest 398 458 16,400 -2,520 Descending FlightAware
04:53PM 44.1820 -78.4790 240° Southwest 388 447 14,600 -2,640 Descending FlightAware
04:54PM 44.1450 -78.5630 238° Southwest 387 445 12,700 -2,700 Descending FlightAware
04:55PM 44.1090 -78.6490 240° Southwest 377 434 11,000 -1,740 Descending FlightAware
04:55PM 44.0720 -78.7360 239° Southwest 331 381 10,300 -720 Descending FlightAware
04:56PM 44.0410 -78.8030 237° Southwest 280 322 10,000 -480 Descending FlightAware
04:57PM 44.0160 -78.8400 227° Southwest 260 299 9,800 -480 Descending FlightAware
04:57PM 43.9950 -78.8720 228° Southwest 262 302 9,600 -900 Descending FlightAware
04:57PM 43.9710 -78.9080 227° Southwest 267 307 9,000 -1,380 Descending FlightAware
04:58PM 43.9570 -78.9280 226° Southwest 267 307 8,600 -1,200 Descending FlightAware
04:58PM 43.9390 -78.9570 229° Southwest 264 304 8,200 -900 Descending FlightAware
04:58PM 43.9270 -78.9750 227° Southwest 259 298 8,000 -960 Descending FlightAware
04:59PM 43.9020 -79.0110 226° Southwest 246 283 7,500 -1,080 Descending FlightAware
04:59PM 43.8910 -79.0280 228° Southwest 234 269 7,200 -1,200 Descending FlightAware
05:00PM 43.8750 -79.0580 234° Southwest 222 255 6,700 -780 Descending FlightAware
05:00PM 43.8740 -79.0780 266° West 221 254 6,700  Level FlightAware
05:00PM 43.8740 -79.1230 270° West 221 254 6,700  Level FlightAware
05:01PM 43.8750 -79.1570 272° West 220 253 6,700  Level FlightAware
05:01PM 43.8760 -79.1740 275° West 221 254 6,700  Level FlightAware
05:01PM 43.8770 -79.2220 272° West 222 255 6,700  Level FlightAware
05:02PM 43.8770 -79.2580 270° West 220 253 6,700  Level FlightAware
05:02PM 43.8780 -79.2790 274° West 221 254 6,700  Level FlightAware
05:03PM 43.8650 -79.3170 245° Southwest 230 265 6,700  Level FlightAware
05:03PM 43.8470 -79.3440 227° Southwest 229 264 6,700 -180 Level FlightAware
05:03PM 43.8390 -79.3600 235° Southwest 224 258 6,600 -480 Descending FlightAware
05:03PM 43.8370 -79.3700 255° West 218 251 6,500 -780 Descending FlightAware
05:04PM 43.8420 -79.4150 279° West 203 234 6,100 -900 Descending FlightAware
05:04PM 43.8430 -79.4280 276° West 200 230 5,900 -1,020 Descending FlightAware
05:04PM 43.8360 -79.4510 247° West 201 231 5,600 -1,080 Descending FlightAware
05:05PM 43.8240 -79.4590 206° Southwest 202 232 5,300 -1,200 Descending FlightAware
05:05PM 43.8020 -79.4670 195° South 193 222 4,800 -1,800 Descending FlightAware
05:06PM 43.7760 -79.4770 196° South 189 217 3,700 -2,100 Descending FlightAware
05:06PM 43.7510 -79.4880 198° South 174 200 2,700 -1,680 Descending FlightAware
05:07PM 43.7370 -79.5010 214° Southwest 153 176 2,200 -1,380 Descending FlightAware
05:07PM 43.7300 -79.5120 229° Southwest 143 165 1,800 -1,080 Descending FlightAware
05:07PM 43.7160 -79.5310 224° Southwest 138 159 1,400 -780 Descending FlightAware
05:08PM 43.7050 -79.5470 226° Southwest 137 158 1,100 -780 Descending FlightAware
05:08PM 43.6980 -79.5570 226° Southwest 140 161 900 -780 Descending FlightAware
05:08PM 43.6870 -79.5740 228° Southwest 144 166 600 -720 Descending FlightAware
05:09PM 43.6830 -79.5790 222° Southwest 144 166 500 -180 Descending FlightAware
05:09PM 43.6710 -79.5960 226° Southwest 144 166 500  Level FlightAware